Time;durP1;ratioP1;P1;durP2;ratioP2;P2;SDS_P1;SDS_P2;PMS_P1;PMS_P2;Temp;Humidity;BMP_temperature;BMP_pressure;BME280_temperature;BME280_humidity;BME280_pressure;Samples;Min_cycle;Max_cycle;Signal;HPM_P1;HPM_P2
2022/12/17 13:06:49;;;;;;;48.27;32.67;;;;;;;12.93;100.00;99549.16;4993755;28;20184;-74
2022/12/17 13:09:31;;;;;;;45.40;28.73;;;;;;;13.10;100.00;99531.69;4993066;28;20202;-74
2022/12/17 13:12:16;;;;;;;35.83;25.23;;;;;;;13.27;100.00;99538.19;4993553;28;20375;-74
2022/12/17 13:14:49;;;;;;;30.20;23.10;;;;;;;13.35;100.00;99530.75;4993501;28;20288;-74
2022/12/17 13:17:30;;;;;;;29.57;23.87;;;;;;;13.40;99.69;99522.91;4992845;28;20187;-73
2022/12/17 13:20:04;;;;;;;37.30;25.50;;;;;;;13.52;99.30;99542.56;4993749;28;20230;-73
2022/12/17 13:22:33;;;;;;;39.17;28.23;;;;;;;13.55;97.95;99547.50;4993254;28;20264;-73
2022/12/17 13:25:16;;;;;;;73.33;49.37;;;;;;;13.48;97.86;99552.03;4992873;28;20196;-74
2022/12/17 13:27:44;;;;;;;42.10;27.17;;;;;;;13.56;98.00;99559.00;4973745;28;20207;-74
2022/12/17 13:30:29;;;;;;;33.60;21.80;;;;;;;13.61;97.40;99557.31;4985558;28;20545;-74
2022/12/17 13:33:09;;;;;;;36.50;23.73;;;;;;;13.62;97.16;99558.97;4993167;28;20192;-74
2022/12/17 13:35:43;;;;;;;31.93;21.23;;;;;;;13.61;97.76;99562.66;4993478;28;20195;-75
2022/12/17 13:38:18;;;;;;;35.87;21.63;;;;;;;13.65;97.76;99566.53;4992525;28;20182;-75
2022/12/17 13:40:55;;;;;;;28.53;19.50;;;;;;;13.72;97.60;99577.97;4993442;28;20254;-75
2022/12/17 13:43:27;;;;;;;23.80;18.97;;;;;;;13.73;97.95;99579.59;4992472;28;20210;-74
2022/12/17 13:45:55;;;;;;;28.00;19.17;;;;;;;13.71;98.33;99589.69;4992691;28;20702;-74
2022/12/17 13:48:25;;;;;;;26.60;18.50;;;;;;;13.65;98.25;99584.41;4992669;28;20226;-75
2022/12/17 13:50:58;;;;;;;21.43;17.50;;;;;;;13.71;98.20;99587.03;4992817;28;20187;-75
2022/12/17 13:53:26;;;;;;;34.23;19.57;;;;;;;13.72;98.52;99588.66;4992739;28;20198;-74
2022/12/17 13:55:54;;;;;;;33.93;19.93;;;;;;;13.75;98.37;99595.41;4992374;28;20229;-75
2022/12/17 13:58:23;;;;;;;28.77;19.63;;;;;;;13.72;98.35;99594.00;4992598;28;20202;-74
2022/12/17 14:00:50;;;;;;;28.33;19.50;;;;;;;13.71;98.50;99597.72;4992776;28;20203;-74
2022/12/17 14:03:20;;;;;;;25.23;19.30;;;;;;;13.67;98.06;99583.16;4992505;28;20283;-75
2022/12/17 14:05:49;;;;;;;25.80;18.70;;;;;;;13.84;98.04;99610.97;4992879;28;20273;-74
2022/12/17 14:08:18;;;;;;;28.70;20.37;;;;;;;13.84;97.94;99605.63;4992087;28;20672;-75
2022/12/17 14:10:50;;;;;;;29.80;21.50;;;;;;;13.83;97.77;99609.34;4992507;28;20195;-73
2022/12/17 14:13:17;;;;;;;31.50;22.90;;;;;;;13.84;97.59;99610.97;4992571;28;20286;-73
2022/12/17 14:15:48;;;;;;;28.57;21.73;;;;;;;13.76;97.28;99603.22;4992094;28;20205;-73
2022/12/17 14:18:18;;;;;;;33.10;23.40;;;;;;;13.83;97.01;99622.69;4992872;28;20194;-74
2022/12/17 14:20:45;;;;;;;36.70;22.27;;;;;;;13.80;97.19;99630.31;4992230;28;20231;-74
2022/12/17 14:23:23;;;;;;;32.23;22.27;;;;;;;13.49;96.96;99627.56;4992302;28;20229;-74
2022/12/17 14:25:50;;;;;;;32.93;23.07;;;;;;;13.37;96.50;99645.28;4991963;28;20237;-74
2022/12/17 14:28:22;;;;;;;36.30;24.23;;;;;;;13.35;96.91;99640.13;4996089;28;20251;-74
2022/12/17 14:30:51;;;;;;;40.23;25.17;;;;;;;13.34;96.65;99619.84;4995926;28;20761;-74
2022/12/17 14:33:28;;;;;;;38.70;25.07;;;;;;;13.29;97.26;99611.66;4996152;28;20198;-74
2022/12/17 14:36:00;;;;;;;43.43;26.70;;;;;;;12.99;97.98;99610.47;4995851;28;20234;-74
2022/12/17 14:38:29;;;;;;;42.83;26.53;;;;;;;12.96;98.53;99624.22;4995655;28;20684;-74
2022/12/17 14:42:23;;;;;;;54.43;29.70;;;;;;;12.94;98.38;99623.59;4995658;28;20199;-74
2022/12/17 14:43:55;;;;;;;45.87;30.60;;;;;;;12.98;98.10;99630.19;4995871;28;20268;-75
2022/12/17 14:46:22;;;;;;;50.97;31.10;;;;;;;13.00;97.92;99617.47;4996487;28;20251;-74
2022/12/17 14:49:04;;;;;;;49.43;29.60;;;;;;;12.80;97.98;99627.31;4996248;28;20199;-74
2022/12/17 14:51:34;;;;;;;46.33;29.50;;;;;;;12.73;98.52;99625.66;4995762;28;20654;-74
2022/12/17 14:54:30;;;;;;;50.50;33.27;;;;;;;12.55;99.47;99642.28;4995595;28;20285;-74
2022/12/17 14:56:58;;;;;;;42.00;29.00;;;;;;;12.53;99.56;99647.00;4961305;28;20233;-74
2022/12/17 14:59:35;;;;;;;45.57;29.90;;;;;;;12.53;99.78;99657.66;4995672;28;20254;-74
2022/12/17 15:02:12;;;;;;;45.63;30.37;;;;;;;12.53;99.90;99662.19;4995902;28;20275;-74
2022/12/17 15:04:40;;;;;;;46.90;30.37;;;;;;;12.49;99.75;99675.06;4995770;28;20218;-74
2022/12/17 15:07:07;;;;;;;39.93;28.50;;;;;;;12.39;100.00;99677.31;4995601;28;20196;-75
2022/12/17 15:09:37;;;;;;;49.67;29.83;;;;;;;12.43;100.00;99689.22;4995025;28;20211;-75
2022/12/17 15:12:04;;;;;;;51.97;33.43;;;;;;;12.42;100.00;99692.09;4995098;28;20668;-75
2022/12/17 15:14:31;;;;;;;55.37;32.67;;;;;;;12.48;100.00;99692.09;4995500;28;20261;-74
2022/12/17 15:16:58;;;;;;;55.83;33.90;;;;;;;12.50;100.00;99695.34;4995505;28;20262;-75
2022/12/17 15:19:25;;;;;;;48.40;31.43;;;;;;;12.53;100.00;99702.94;4995020;28;20208;-75
2022/12/17 15:21:51;;;;;;;53.73;31.47;;;;;;;12.52;100.00;99714.63;4998417;28;20189;-76
2022/12/17 15:24:20;;;;;;;61.00;34.80;;;;;;;12.48;100.00;99733.88;4995165;28;20329;-74
2022/12/17 15:26:48;;;;;;;74.00;38.97;;;;;;;12.47;100.00;99753.56;4994813;28;20585;-74
2022/12/17 15:29:15;;;;;;;90.03;49.20;;;;;;;12.47;100.00;99751.72;4994652;28;20255;-75
2022/12/17 15:31:42;;;;;;;95.60;52.77;;;;;;;12.46;100.00;99768.72;4994986;28;20193;-74
2022/12/17 15:34:11;;;;;;;93.03;50.57;;;;;;;12.47;100.00;99775.72;4997349;28;20664;-75
2022/12/17 15:36:38;;;;;;;73.80;45.20;;;;;;;12.48;100.00;99782.69;4997682;28;20628;-75
2022/12/17 15:39:05;;;;;;;70.93;41.70;;;;;;;12.51;100.00;99792.09;4994058;28;20205;-77
2022/12/17 15:44:18;;;;;;;61.53;38.10;;;;;;;12.59;100.00;99798.09;4991833;28;20711;-74
2022/12/17 15:46:44;;;;;;;56.10;36.53;;;;;;;12.55;100.00;99794.19;4994648;28;20190;-75
2022/12/17 15:49:11;;;;;;;62.70;38.30;;;;;;;12.60;100.00;99785.56;4993962;28;20263;-73
2022/12/17 15:51:38;;;;;;;60.07;37.83;;;;;;;12.65;100.00;99773.28;4994386;28;20197;-73
2022/12/17 15:54:04;;;;;;;65.60;40.97;;;;;;;12.66;100.00;99753.59;4993896;28;20682;-74
2022/12/17 15:56:31;;;;;;;72.03;43.93;;;;;;;12.59;100.00;99683.50;4993938;28;20196;-74
2022/12/17 15:58:58;;;;;;;51.27;31.27;;;;;;;12.42;100.00;99634.28;4994309;28;20196;-74
2022/12/17 16:01:27;;;;;;;54.43;31.93;;;;;;;12.46;100.00;99648.81;4994484;28;20263;-72
2022/12/17 16:03:53;;;;;;;59.33;32.50;;;;;;;12.47;100.00;99658.47;4994360;28;20225;-72
2022/12/17 16:06:20;;;;;;;62.43;35.80;;;;;;;12.51;100.00;99617.09;4994614;28;20201;-75
2022/12/17 16:08:47;;;;;;;56.87;37.43;;;;;;;12.50;100.00;99631.41;4994046;28;20665;-74
2022/12/17 16:11:14;;;;;;;72.97;47.60;;;;;;;12.54;100.00;99648.63;4994471;28;20205;-74
2022/12/17 16:13:42;;;;;;;52.80;34.20;;;;;;;12.63;100.00;99686.56;4994376;28;20201;-74
2022/12/17 16:16:08;;;;;;;61.53;36.17;;;;;;;12.71;100.00;99713.84;4994048;28;20199;-73
2022/12/17 16:18:38;;;;;;;50.57;33.03;;;;;;;12.45;100.00;99644.53;4994521;28;20205;-72
2022/12/17 16:21:06;;;;;;;57.10;34.07;;;;;;;12.78;100.00;99680.00;4994167;28;20331;-72
2022/12/17 16:23:34;;;;;;;52.23;32.10;;;;;;;12.82;100.00;99683.91;4992644;28;20221;-73
2022/12/17 16:26:02;;;;;;;62.97;36.13;;;;;;;12.82;100.00;99694.56;4992756;28;20205;-74
2022/12/17 16:28:30;;;;;;;50.87;33.53;;;;;;;12.87;100.00;99696.63;4992986;28;20197;-73
2022/12/17 16:31:02;;;;;;;52.90;32.13;;;;;;;12.89;100.00;99695.38;4992892;28;20204;-72
2022/12/17 16:33:32;;;;;;;51.37;30.67;;;;;;;12.91;100.00;99690.66;4993676;28;20201;-74
2022/12/17 16:36:00;;;;;;;80.77;46.73;;;;;;;12.96;100.00;99690.03;4993694;28;20195;-73
2022/12/17 16:38:27;;;;;;;70.43;42.83;;;;;;;12.93;100.00;99669.94;4993602;28;20678;-73
2022/12/17 16:40:56;;;;;;;52.33;36.50;;;;;;;12.90;100.00;99681.03;4993438;28;20197;-73
2022/12/17 16:43:23;;;;;;;55.73;34.93;;;;;;;12.97;100.00;99687.22;4993445;28;20311;-73
2022/12/17 16:45:51;;;;;;;55.83;34.93;;;;;;;12.88;100.00;99677.75;4993852;28;20198;-73
2022/12/17 16:48:19;;;;;;;50.17;33.87;;;;;;;12.87;100.00;99681.41;4993759;28;20582;-74
2022/12/17 16:50:47;;;;;;;97.67;61.33;;;;;;;12.91;100.00;99688.00;4993091;28;20197;-74
2022/12/17 16:53:15;;;;;;;82.13;47.87;;;;;;;12.86;100.00;99698.44;4994457;28;20200;-74
2022/12/17 16:55:44;;;;;;;60.87;37.77;;;;;;;12.85;100.00;99701.31;4993174;28;20292;-74
2022/12/17 16:58:11;;;;;;;42.97;28.90;;;;;;;12.87;100.00;99701.94;4994068;28;20195;-74
2022/12/17 17:00:38;;;;;;;43.37;28.70;;;;;;;12.85;100.00;99710.16;4993356;28;20259;-74
2022/12/17 17:03:06;;;;;;;48.70;31.03;;;;;;;12.74;100.00;99712.63;4993063;28;20282;-74
2022/12/17 17:05:33;;;;;;;50.73;31.27;;;;;;;12.70;100.00;99714.06;4992926;28;20259;-73
2022/12/17 17:08:00;;;;;;;55.10;35.10;;;;;;;12.64;100.00;99715.69;4993340;28;20543;-74
2022/12/17 17:10:29;;;;;;;56.43;34.83;;;;;;;12.59;100.00;99715.47;4973778;28;20201;-74
2022/12/17 17:12:56;;;;;;;59.60;37.93;;;;;;;12.30;100.00;99721.16;4974145;28;20260;-74
2022/12/17 17:15:23;;;;;;;68.37;39.67;;;;;;;12.22;100.00;99720.50;4973497;28;20667;-74
2022/12/17 17:17:50;;;;;;;61.63;39.47;;;;;;;12.14;100.00;99729.50;4973495;28;20193;-75
2022/12/17 17:20:17;;;;;;;60.43;38.33;;;;;;;11.91;100.00;99731.66;4973388;28;20238;-74
2022/12/17 17:22:44;;;;;;;63.53;37.07;;;;;;;11.87;100.00;99746.41;4973743;28;20202;-74
2022/12/17 17:25:11;;;;;;;62.37;38.07;;;;;;;11.83;100.00;99736.31;4973281;28;20647;-74
2022/12/17 17:27:39;;;;;;;69.23;39.60;;;;;;;11.89;100.00;99746.19;4992537;28;20208;-74
2022/12/17 17:30:07;;;;;;;63.90;38.00;;;;;;;11.89;100.00;99747.03;4992617;28;20205;-74
2022/12/17 17:32:33;;;;;;;64.97;39.30;;;;;;;11.94;100.00;99754.41;4992734;28;20200;-75
2022/12/17 17:35:00;;;;;;;62.17;38.47;;;;;;;11.97;100.00;99773.47;4992945;28;20348;-74
2022/12/17 17:37:27;;;;;;;64.87;39.13;;;;;;;12.05;100.00;99770.63;4992576;28;20254;-72
2022/12/17 17:39:54;;;;;;;61.77;39.93;;;;;;;12.12;100.00;99765.34;4992462;28;20287;-72
2022/12/17 17:42:21;;;;;;;90.37;47.87;;;;;;;12.12;100.00;99766.16;4992568;28;20204;-72
2022/12/17 17:44:49;;;;;;;99.07;51.90;;;;;;;12.19;100.00;99772.34;4993235;28;20221;-72
2022/12/17 17:47:16;;;;;;;134.57;63.63;;;;;;;12.17;100.00;99774.38;4993046;28;20239;-73
2022/12/17 17:49:42;;;;;;;67.00;40.73;;;;;;;12.10;100.00;99781.53;4992454;28;20203;-74
2022/12/17 17:52:09;;;;;;;66.37;40.27;;;;;;;12.14;100.00;99765.97;4992693;28;20259;-73
2022/12/17 17:54:36;;;;;;;88.83;46.90;;;;;;;12.19;100.00;99768.84;4993552;28;20210;-73
2022/12/17 17:57:02;;;;;;;87.20;45.53;;;;;;;12.17;100.00;99779.69;4992673;28;20242;-73
2022/12/17 17:59:29;;;;;;;67.70;42.47;;;;;;;12.18;100.00;99792.00;4992984;28;20191;-73
2022/12/17 18:01:57;;;;;;;88.57;48.07;;;;;;;12.10;100.00;99794.00;4991747;28;20223;-73
2022/12/17 18:04:24;;;;;;;88.57;51.67;;;;;;;11.92;100.00;99791.88;4993348;28;20220;-74
2022/12/17 18:06:51;;;;;;;95.43;51.53;;;;;;;11.92;100.00;99778.56;4992537;28;20192;-74
2022/12/17 18:09:18;;;;;;;84.77;48.00;;;;;;;11.93;100.00;99776.72;4992663;28;20191;-73
2022/12/17 18:11:45;;;;;;;74.33;43.60;;;;;;;11.94;100.00;99783.69;4992155;28;20665;-74
2022/12/17 18:14:11;;;;;;;80.57;50.63;;;;;;;11.95;100.00;99793.31;4992268;28;20199;-73
2022/12/17 18:16:40;;;;;;;81.80;47.07;;;;;;;11.93;100.00;99798.84;4992674;28;20211;-74
2022/12/17 18:19:11;;;;;;;72.77;45.57;;;;;;;11.92;100.00;99799.06;4992882;28;20606;-74
2022/12/17 18:21:39;;;;;;;68.33;44.63;;;;;;;11.93;100.00;99798.84;4992899;28;20285;-73
2022/12/17 18:24:09;;;;;;;81.37;46.70;;;;;;;11.91;100.00;99792.91;4992541;28;20227;-73
2022/12/17 18:26:41;;;;;;;81.50;48.53;;;;;;;11.90;100.00;99791.25;4992253;28;20200;-73
2022/12/17 18:29:09;;;;;;;83.57;52.33;;;;;;;11.88;100.00;99798.59;4992097;28;20184;-73
2022/12/17 18:31:36;;;;;;;86.10;53.13;;;;;;;11.68;100.00;99795.00;4992349;28;20242;-73
2022/12/17 18:34:04;;;;;;;116.80;70.63;;;;;;;11.51;100.00;99804.28;4992140;28;20671;-73
2022/12/17 18:36:36;;;;;;;98.83;60.87;;;;;;;11.47;100.00;99815.53;4992529;28;20195;-73
2022/12/17 18:39:06;;;;;;;98.40;62.57;;;;;;;11.47;100.00;99824.31;4992371;28;20228;-73
2022/12/17 18:44:17;;;;;;;97.20;59.40;;;;;;;11.52;100.00;99835.22;4992653;28;20219;-73
2022/12/17 18:46:44;;;;;;;88.37;57.13;;;;;;;11.49;100.00;99848.88;4991815;28;20195;-73
2022/12/17 18:49:13;;;;;;;93.23;57.90;;;;;;;11.44;100.00;99843.34;4991918;28;20250;-73
2022/12/17 18:51:43;;;;;;;92.67;59.73;;;;;;;11.27;100.00;99849.13;4991821;28;20254;-73
2022/12/17 18:54:14;;;;;;;96.43;56.83;;;;;;;11.25;100.00;99840.50;4992532;28;20191;-73
2022/12/17 18:56:41;;;;;;;84.40;50.70;;;;;;;11.01;100.00;99839.06;4991888;28;20251;-73
2022/12/17 18:59:08;;;;;;;77.10;46.67;;;;;;;10.92;100.00;99829.56;4991778;28;20200;-74
2022/12/17 19:01:36;;;;;;;73.30;45.80;;;;;;;10.89;100.00;99828.13;4991989;28;20230;-74
2022/12/17 19:04:05;;;;;;;79.93;46.87;;;;;;;10.87;100.00;99818.69;4991732;28;20219;-74
2022/12/17 19:06:33;;;;;;;80.03;48.57;;;;;;;10.84;100.00;99819.91;4991695;28;20632;-74
2022/12/17 19:09:02;;;;;;;71.07;44.57;;;;;;;10.90;100.00;99835.06;4991793;28;20253;-74
2022/12/17 19:11:34;;;;;;;67.27;43.40;;;;;;;10.94;100.00;99843.47;4992299;28;20511;-74
2022/12/17 19:14:01;;;;;;;69.70;44.77;;;;;;;10.92;100.00;99848.16;4995518;28;20260;-74
2022/12/17 19:16:29;;;;;;;82.93;48.50;;;;;;;10.80;100.00;99844.38;4995046;28;20672;-74
2022/12/17 19:18:58;;;;;;;82.33;46.23;;;;;;;10.80;100.00;99847.03;4995396;28;20195;-74
2022/12/17 19:21:26;;;;;;;81.53;46.67;;;;;;;10.84;100.00;99842.97;4995523;28;20226;-74
2022/12/17 19:23:57;;;;;;;68.00;43.90;;;;;;;10.52;100.00;99812.41;4995082;28;20768;-73
2022/12/17 19:26:26;;;;;;;78.33;47.43;;;;;;;10.71;100.00;99882.69;4995153;28;20662;-73
2022/12/17 19:28:54;;;;;;;89.90;50.97;;;;;;;10.59;100.00;99897.47;4995233;28;20195;-73
2022/12/17 19:31:23;;;;;;;93.63;53.77;;;;;;;10.59;100.00;99894.81;4995140;28;20194;-73
2022/12/17 19:33:53;;;;;;;90.00;50.27;;;;;;;10.69;100.00;99898.00;4995252;28;20281;-73
2022/12/17 19:36:21;;;;;;;95.53;54.43;;;;;;;10.77;100.00;99905.84;4995757;28;20198;-73
2022/12/17 19:38:51;;;;;;;110.03;58.77;;;;;;;10.75;100.00;99913.19;4994745;28;20199;-73
2022/12/17 19:41:18;;;;;;;113.50;66.13;;;;;;;10.76;100.00;99912.19;4994636;28;20701;-73
2022/12/17 19:43:48;;;;;;;105.07;59.97;;;;;;;10.76;100.00;99912.19;4994630;28;20218;-73
2022/12/17 19:46:17;;;;;;;144.93;82.13;;;;;;;10.66;100.00;99903.69;4995397;28;20191;-73
2022/12/17 19:48:45;;;;;;;105.90;56.33;;;;;;;10.60;100.00;99904.44;4994723;28;20245;-73
2022/12/17 19:51:14;;;;;;;95.80;54.80;;;;;;;10.69;100.00;99913.94;4994467;28;20626;-74
2022/12/17 19:53:42;;;;;;;92.70;51.83;;;;;;;10.75;100.00;99929.13;4994507;28;20750;-73
2022/12/17 19:56:12;;;;;;;85.93;50.80;;;;;;;10.80;100.00;99946.19;4995411;28;20249;-73
2022/12/17 19:58:40;;;;;;;92.47;51.80;;;;;;;10.82;100.00;99953.94;4994648;28;20195;-73
2022/12/17 20:01:10;;;;;;;97.33;53.10;;;;;;;10.82;100.00;99959.25;4995050;28;20191;-73
2022/12/17 20:03:38;;;;;;;135.73;75.37;;;;;;;10.77;100.00;99964.31;4994337;28;20314;-72
2022/12/17 20:06:07;;;;;;;117.70;62.73;;;;;;;10.78;100.00;99950.00;4994210;28;20195;-74
2022/12/17 20:08:35;;;;;;;84.80;48.23;;;;;;;10.66;100.00;99924.94;4993989;28;20656;-72
2022/12/17 20:13:52;;;;;;;73.53;43.60;;;;;;;10.67;100.00;99910.66;4993348;28;20198;-76
2022/12/17 20:16:21;;;;;;;82.13;46.17;;;;;;;10.76;100.00;99930.78;4994400;28;20187;-71
2022/12/17 20:18:47;;;;;;;84.57;47.73;;;;;;;10.80;100.00;99902.81;4990096;28;20198;-74
2022/12/17 20:21:14;;;;;;;80.50;46.27;;;;;;;10.73;100.00;99872.69;4990746;28;20289;-74
2022/12/17 20:23:41;;;;;;;74.23;43.77;;;;;;;10.79;100.00;99818.81;4992754;28;20217;-72
2022/12/17 20:26:10;;;;;;;80.33;42.93;;;;;;;10.58;100.00;99785.06;4993364;28;20674;-73
2022/12/17 20:28:38;;;;;;;74.83;44.77;;;;;;;10.79;100.00;99850.69;4993955;28;20195;-72
2022/12/17 20:31:06;;;;;;;81.03;45.77;;;;;;;10.85;100.00;99885.31;4987757;28;20198;-69
2022/12/17 20:33:35;;;;;;;80.53;46.20;;;;;;;10.92;100.00;99914.63;4993659;28;20729;-69
2022/12/17 20:36:10;;;;;;;81.43;46.00;;;;;;;10.92;100.00;99933.22;4997373;28;20222;-69
2022/12/17 20:38:37;;;;;;;80.97;44.67;;;;;;;10.88;100.00;99923.97;4994390;28;20192;-69
2022/12/17 20:41:09;;;;;;;66.80;41.90;;;;;;;10.88;100.00;99923.97;4994093;28;20198;-69
2022/12/17 20:43:35;;;;;;;65.47;41.60;;;;;;;10.83;100.00;99931.69;4993516;28;20191;-69
2022/12/17 20:46:02;;;;;;;66.50;39.90;;;;;;;10.95;100.00;99930.19;4993479;28;20206;-68
2022/12/17 20:48:29;;;;;;;63.23;39.93;;;;;;;11.06;100.00;99935.00;4994066;28;20273;-68
2022/12/17 20:50:57;;;;;;;59.47;38.63;;;;;;;11.12;100.00;99942.25;4993612;28;20659;-68
2022/12/17 20:53:24;;;;;;;72.43;41.67;;;;;;;11.19;100.00;99945.78;4993302;28;20667;-69
2022/12/17 20:55:59;;;;;;;66.80;40.00;;;;;;;11.25;100.00;99945.03;4993782;28;20195;-68
2022/12/17 20:58:26;;;;;;;58.57;37.80;;;;;;;11.30;100.00;99950.59;4993986;28;20191;-68
2022/12/17 21:01:01;;;;;;;58.97;37.67;;;;;;;11.33;100.00;99942.25;4993703;28;20202;-69
2022/12/17 21:03:27;;;;;;;61.13;39.97;;;;;;;11.40;100.00;99944.97;4992715;28;20714;-68
2022/12/17 21:05:54;;;;;;;57.97;36.17;;;;;;;11.43;100.00;99958.69;4992891;28;20211;-68
2022/12/17 21:08:22;;;;;;;54.60;35.70;;;;;;;11.46;100.00;99971.63;4993038;28;20200;-69
2022/12/17 21:10:55;;;;;;;55.47;36.33;;;;;;;11.50;100.00;99977.38;4993166;28;20657;-69
2022/12/17 21:13:31;;;;;;;58.60;37.30;;;;;;;11.49;100.00;99970.41;4993578;28;20190;-68
2022/12/17 21:15:59;;;;;;;59.27;37.27;;;;;;;11.46;100.00;99968.97;4992280;28;20195;-69
2022/12/17 21:18:27;;;;;;;57.10;36.50;;;;;;;11.42;100.00;99980.16;4991992;28;20742;-68
2022/12/17 21:20:56;;;;;;;61.53;36.23;;;;;;;11.44;100.00;99976.34;4988609;28;20223;-67
2022/12/17 21:23:25;;;;;;;53.90;35.67;;;;;;;11.47;100.00;99989.22;4991996;28;20199;-68
2022/12/17 21:26:03;;;;;;;54.90;35.47;;;;;;;11.47;100.00;100002.53;4992584;28;20273;-68
2022/12/17 21:28:30;;;;;;;51.07;34.20;;;;;;;11.47;100.00;99999.06;4992418;28;20196;-68
2022/12/17 21:30:57;;;;;;;62.73;36.97;;;;;;;11.42;100.00;99991.63;4992892;28;20302;-68
2022/12/17 21:33:24;;;;;;;60.57;37.33;;;;;;;11.27;100.00;99985.53;4992520;28;20334;-68
2022/12/17 21:35:50;;;;;;;54.93;35.93;;;;;;;11.31;100.00;99991.31;4992424;28;20210;-68
2022/12/17 21:38:17;;;;;;;61.10;35.37;;;;;;;11.32;100.00;99985.81;4992771;28;20199;-69
2022/12/17 21:40:45;;;;;;;57.60;35.80;;;;;;;11.29;100.00;99996.81;4992133;28;20734;-69
2022/12/17 21:43:12;;;;;;;59.43;35.97;;;;;;;11.28;100.00;99995.19;4992458;28;20745;-69
2022/12/17 21:45:40;;;;;;;65.27;37.87;;;;;;;11.28;100.00;100000.50;4992905;28;20227;-69
2022/12/17 21:48:09;;;;;;;69.07;41.97;;;;;;;11.28;100.00;99997.00;4992569;28;20207;-68
2022/12/17 21:50:39;;;;;;;62.50;38.87;;;;;;;11.23;100.00;99991.44;4989856;28;20194;-71
2022/12/17 21:53:06;;;;;;;60.30;36.97;;;;;;;11.19;100.00;99990.97;4989789;28;20257;-71
2022/12/17 21:55:33;;;;;;;59.10;37.40;;;;;;;11.13;100.00;99991.75;4992149;28;20643;-71
2022/12/17 21:58:01;;;;;;;56.40;37.97;;;;;;;11.17;100.00;99987.69;4992572;28;20202;-70
2022/12/17 22:00:28;;;;;;;63.67;38.10;;;;;;;11.19;100.00;99980.34;4993258;28;20202;-69
2022/12/17 22:02:54;;;;;;;59.67;35.40;;;;;;;11.18;100.00;99981.34;4992452;28;20201;-70
2022/12/17 22:05:21;;;;;;;57.40;36.63;;;;;;;11.18;100.00;99989.34;4992745;28;20284;-71
2022/12/17 22:07:48;;;;;;;63.93;39.37;;;;;;;11.19;100.00;99985.66;4991612;28;20619;-71
2022/12/17 22:10:15;;;;;;;62.93;39.30;;;;;;;11.17;100.00;99981.53;4992572;28;20194;-71
2022/12/17 22:15:27;;;;;;;60.03;38.43;;;;;;;11.03;100.00;99980.59;4992511;28;20297;-72
2022/12/17 22:17:54;;;;;;;60.10;39.23;;;;;;;10.96;100.00;99985.00;4992245;28;20253;-72
2022/12/17 22:20:21;;;;;;;66.37;39.77;;;;;;;10.92;100.00;99995.16;4992581;28;20234;-72
2022/12/17 22:22:48;;;;;;;62.43;37.77;;;;;;;10.88;100.00;100009.03;4991967;28;20191;-72
2022/12/17 22:25:15;;;;;;;61.90;37.53;;;;;;;10.88;100.00;100006.34;4992257;28;20702;-71
2022/12/17 22:27:42;;;;;;;64.13;39.40;;;;;;;10.87;100.00;100013.50;4992220;28;20616;-71
2022/12/17 22:32:59;;;;;;;58.33;37.30;;;;;;;10.88;100.00;100006.34;4992877;28;20190;-71
2022/12/17 22:35:26;;;;;;;69.27;40.97;;;;;;;10.89;100.00;100016.81;4992196;28;20667;-71
2022/12/17 22:37:53;;;;;;;61.40;39.30;;;;;;;10.90;100.00;100014.97;4992555;28;20195;-71
2022/12/17 22:40:21;;;;;;;64.73;39.67;;;;;;;10.94;100.00;100021.56;4992465;28;20195;-71
2022/12/17 22:45:32;;;;;;;67.33;42.13;;;;;;;10.98;100.00;100021.00;4992241;28;20694;-71
2022/12/17 22:48:00;;;;;;;57.17;38.03;;;;;;;11.00;100.00;100024.28;4993984;28;20199;-71
2022/12/17 22:50:27;;;;;;;62.33;37.87;;;;;;;11.01;100.00;100027.78;4996129;28;20203;-71
2022/12/17 22:52:53;;;;;;;61.00;38.37;;;;;;;10.98;100.00;100028.16;4995785;28;20191;-71
2022/12/17 22:55:20;;;;;;;60.83;39.33;;;;;;;10.96;100.00;100036.31;4996024;28;20284;-71
2022/12/17 22:57:47;;;;;;;58.87;40.00;;;;;;;10.96;100.00;100032.84;4995756;28;20195;-72
2022/12/17 23:00:17;;;;;;;64.53;38.53;;;;;;;10.95;100.00;100047.16;4995702;28;20625;-71
2022/12/17 23:02:44;;;;;;;65.77;38.77;;;;;;;10.91;100.00;100027.25;4996118;28;20183;-72
2022/12/17 23:05:12;;;;;;;57.77;37.47;;;;;;;11.02;100.00;100037.41;4995480;28;20226;-72
2022/12/17 23:07:39;;;;;;;57.53;38.40;;;;;;;11.05;100.00;100042.34;4995586;28;20258;-72
2022/12/17 23:10:06;;;;;;;59.13;37.13;;;;;;;11.08;100.00;100023.38;4995713;28;20203;-72
2022/12/17 23:12:52;;;;;;;55.90;36.60;;;;;;;11.17;100.00;100029.41;4995726;28;20277;-71
2022/12/17 23:15:27;;;;;;;54.50;33.67;;;;;;;11.15;100.00;100016.28;4995836;28;20194;-71
2022/12/17 23:17:57;;;;;;;60.63;36.67;;;;;;;11.19;100.00;100006.91;4996043;28;20245;-72
2022/12/17 23:20:27;;;;;;;53.67;34.27;;;;;;;11.09;100.00;100001.09;4995547;28;20262;-72
2022/12/17 23:22:54;;;;;;;60.10;36.67;;;;;;;11.16;100.00;100044.53;4995864;28;20570;-72
2022/12/17 23:25:21;;;;;;;57.53;35.43;;;;;;;11.18;100.00;100047.81;4995368;28;20226;-72
2022/12/17 23:27:48;;;;;;;59.47;35.80;;;;;;;11.00;100.00;100050.88;4995714;28;20249;-72
2022/12/17 23:30:17;;;;;;;53.43;35.27;;;;;;;11.03;100.00;100060.34;4995061;28;20668;-72
2022/12/17 23:32:44;;;;;;;56.07;36.27;;;;;;;11.06;100.00;100054.63;4995426;28;20197;-72
2022/12/17 23:35:12;;;;;;;53.63;34.07;;;;;;;11.14;100.00;100062.50;4995023;28;20203;-72
2022/12/17 23:37:41;;;;;;;55.40;34.20;;;;;;;11.20;100.00;100072.41;4995016;28;20212;-72
2022/12/17 23:40:08;;;;;;;49.57;33.60;;;;;;;11.25;100.00;100069.19;4995338;28;20195;-72
2022/12/17 23:42:35;;;;;;;50.27;33.67;;;;;;;11.28;100.00;100064.34;4994925;28;20726;-72
2022/12/17 23:45:02;;;;;;;54.77;32.90;;;;;;;11.32;100.00;100064.78;4994695;28;20273;-72
2022/12/17 23:47:30;;;;;;;49.10;32.27;;;;;;;11.37;100.00;100073.00;4995976;28;20195;-72
2022/12/17 23:49:57;;;;;;;46.43;32.47;;;;;;;11.41;100.00;100084.94;4995019;28;20201;-71
2022/12/17 23:52:24;;;;;;;49.17;33.73;;;;;;;11.45;100.00;100097.69;4995073;28;20191;-71
2022/12/17 23:54:52;;;;;;;48.23;32.20;;;;;;;11.43;100.00;100099.69;4994618;28;20208;-71
2022/12/17 23:57:19;;;;;;;51.93;34.87;;;;;;;11.33;100.00;100096.50;4994947;28;20284;-71
2022/12/17 23:59:46;;;;;;;60.23;37.97;;;;;;;11.30;100.00;100086.22;4993391;28;20674;-71
